Time;durP1;ratioP1;P1;durP2;ratioP2;P2;SDS_P1;SDS_P2;PMS_P1;PMS_P2;Temp;Humidity;BMP_temperature;BMP_pressure;BME280_temperature;BME280_humidity;BME280_pressure;Samples;Min_cycle;Max_cycle;Signal;HPM_P1;HPM_P2
2022/07/17 00:00:45;;;;;;;4.57;2.55;;;13.70;58.20;;;;;;604842;237;26600;-73
2022/07/17 00:03:13;;;;;;;3.62;2.35;;;13.70;58.10;;;;;;607339;236;26852;-73
2022/07/17 00:05:41;;;;;;;4.12;2.62;;;13.60;58.10;;;;;;609842;236;26561;-73
2022/07/17 00:08:08;;;;;;;4.28;2.15;;;13.60;58.10;;;;;;609884;235;26594;-73
2022/07/17 00:10:35;;;;;;;3.25;1.90;;;13.60;58.20;;;;;;609859;236;26589;-73
2022/07/17 00:13:02;;;;;;;2.28;2.08;;;13.60;58.40;;;;;;609919;235;26841;-73
2022/07/17 00:15:29;;;;;;;4.60;2.42;;;13.60;58.60;;;;;;609944;235;26596;-73
2022/07/17 00:17:57;;;;;;;3.60;2.40;;;13.50;58.60;;;;;;604457;235;26865;-73
2022/07/17 00:20:25;;;;;;;2.95;2.40;;;13.50;58.70;;;;;;601657;237;26651;-73
2022/07/17 00:22:51;;;;;;;4.43;2.15;;;13.50;58.80;;;;;;601568;239;26896;-73
2022/07/17 00:25:18;;;;;;;2.85;1.85;;;13.50;58.80;;;;;;601616;237;26608;-73
2022/07/17 00:27:45;;;;;;;4.12;2.35;;;13.50;58.90;;;;;;601513;239;27208;-73
2022/07/17 00:30:13;;;;;;;3.72;2.10;;;13.40;59.30;;;;;;601545;237;26652;-73
2022/07/17 00:32:41;;;;;;;4.03;2.20;;;13.40;59.50;;;;;;601558;237;26680;-73
2022/07/17 00:35:09;;;;;;;3.15;2.20;;;13.30;59.50;;;;;;601537;237;26670;-73
2022/07/17 00:37:39;;;;;;;2.03;1.80;;;13.30;59.70;;;;;;601943;237;26641;-73
2022/07/17 00:40:07;;;;;;;3.62;2.33;;;13.20;59.70;;;;;;602889;238;26868;-72
2022/07/17 00:42:34;;;;;;;4.62;2.62;;;13.30;59.80;;;;;;602564;239;26630;-73
2022/07/17 00:45:01;;;;;;;3.28;2.08;;;13.30;59.80;;;;;;602380;237;26899;-73
2022/07/17 00:47:29;;;;;;;1.83;1.73;;;13.20;60.00;;;;;;602268;237;26652;-73
2022/07/17 00:49:56;;;;;;;4.37;2.15;;;13.20;60.40;;;;;;602140;239;26927;-73
2022/07/17 00:52:23;;;;;;;3.05;2.30;;;13.10;60.40;;;;;;602052;237;26609;-73
2022/07/17 00:54:51;;;;;;;2.72;2.00;;;13.10;60.80;;;;;;602132;239;27224;-73
2022/07/17 00:57:18;;;;;;;4.07;2.25;;;13.10;61.30;;;;;;601800;239;26593;-73
2022/07/17 00:59:46;;;;;;;3.05;2.00;;;13.00;61.70;;;;;;601871;237;26603;-73
2022/07/17 01:02:14;;;;;;;3.92;2.15;;;13.00;61.70;;;;;;604868;237;26635;-73
2022/07/17 01:04:41;;;;;;;3.45;1.87;;;13.00;62.00;;;;;;604883;237;26583;-73
2022/07/17 01:07:09;;;;;;;2.95;1.92;;;13.00;62.30;;;;;;604883;237;26886;-73
2022/07/17 01:09:36;;;;;;;2.55;1.80;;;12.90;62.50;;;;;;604773;237;26597;-73
2022/07/17 01:12:03;;;;;;;3.92;2.10;;;12.90;62.70;;;;;;604863;238;27279;-73
2022/07/17 01:14:31;;;;;;;2.72;1.98;;;12.80;63.30;;;;;;605372;236;26594;-73
2022/07/17 01:16:58;;;;;;;3.30;1.95;;;12.80;63.20;;;;;;609804;231;26598;-73
2022/07/17 01:19:26;;;;;;;3.12;1.87;;;12.80;63.10;;;;;;609862;235;26606;-73
2022/07/17 01:21:53;;;;;;;4.45;2.10;;;12.80;63.30;;;;;;609848;235;26855;-73
2022/07/17 01:24:20;;;;;;;1.73;1.62;;;12.80;63.30;;;;;;609869;236;26582;-71
2022/07/17 01:26:47;;;;;;;2.70;1.80;;;12.80;64.00;;;;;;609885;235;26826;-71
2022/07/17 01:29:14;;;;;;;4.28;2.37;;;12.70;64.40;;;;;;609203;235;26591;-72
2022/07/17 01:31:42;;;;;;;2.25;2.05;;;12.70;64.60;;;;;;601427;239;26884;-72
2022/07/17 01:34:09;;;;;;;2.22;1.70;;;12.70;64.90;;;;;;601463;237;26652;-72
2022/07/17 01:36:36;;;;;;;2.75;1.80;;;12.70;64.70;;;;;;601525;233;26863;-72
2022/07/17 01:39:03;;;;;;;2.37;1.75;;;12.60;65.10;;;;;;601513;237;26640;-72
2022/07/17 01:41:30;;;;;;;2.45;1.77;;;12.60;65.10;;;;;;601527;239;27290;-72
2022/07/17 01:43:58;;;;;;;3.20;1.65;;;12.60;65.80;;;;;;602654;237;26622;-72
2022/07/17 01:46:26;;;;;;;3.90;2.17;;;12.50;66.00;;;;;;604616;238;26587;-72
2022/07/17 01:48:54;;;;;;;3.85;2.10;;;12.50;66.10;;;;;;604746;236;26583;-72
2022/07/17 01:51:22;;;;;;;3.65;1.95;;;12.50;66.10;;;;;;606104;237;26613;-72
2022/07/17 01:53:49;;;;;;;1.95;1.75;;;12.50;66.10;;;;;;605700;236;26641;-72
2022/07/17 01:56:17;;;;;;;2.92;1.70;;;12.50;66.50;;;;;;605501;236;26582;-72
2022/07/17 01:58:44;;;;;;;3.47;1.98;;;12.40;66.30;;;;;;605276;235;26808;-72
2022/07/17 02:01:11;;;;;;;1.95;1.62;;;12.40;66.40;;;;;;605105;238;26610;-72
2022/07/17 02:03:38;;;;;;;4.35;1.87;;;12.40;66.70;;;;;;605177;238;26860;-72
2022/07/17 02:06:05;;;;;;;2.05;1.73;;;12.30;66.80;;;;;;605206;237;26621;-72
2022/07/17 02:08:33;;;;;;;2.70;1.80;;;12.30;66.90;;;;;;605001;237;26852;-72
2022/07/17 02:11:00;;;;;;;6.78;1.62;;;12.30;67.20;;;;;;604822;237;26669;-72
2022/07/17 02:13:28;;;;;;;3.35;1.73;;;12.30;67.60;;;;;;603106;236;26823;-72
2022/07/17 02:15:55;;;;;;;3.47;1.90;;;12.30;67.80;;;;;;601823;237;26599;-72
2022/07/17 02:18:22;;;;;;;3.15;1.65;;;12.30;67.90;;;;;;601845;237;26915;-72
2022/07/17 02:20:50;;;;;;;2.12;1.75;;;12.30;68.00;;;;;;601784;237;26582;-72
2022/07/17 02:23:18;;;;;;;2.90;1.60;;;12.30;68.30;;;;;;601826;238;26614;-72
2022/07/17 02:25:46;;;;;;;1.62;1.42;;;12.30;68.40;;;;;;601713;237;26603;-72
2022/07/17 02:28:13;;;;;;;5.45;2.12;;;12.30;68.40;;;;;;601679;236;26630;-72
2022/07/17 02:30:41;;;;;;;1.60;1.50;;;12.30;68.90;;;;;;601529;237;26628;-72
2022/07/17 02:33:08;;;;;;;2.50;1.77;;;12.20;69.30;;;;;;601515;237;26897;-72
2022/07/17 02:35:35;;;;;;;2.78;1.67;;;12.20;69.60;;;;;;601529;237;26644;-72
2022/07/17 02:38:03;;;;;;;2.03;1.80;;;12.10;70.50;;;;;;601525;238;26888;-72
2022/07/17 02:40:30;;;;;;;2.33;1.52;;;12.10;70.50;;;;;;601519;237;26876;-72
2022/07/17 02:42:57;;;;;;;3.08;1.95;;;12.10;70.90;;;;;;601535;238;26671;-71
2022/07/17 02:45:25;;;;;;;2.35;1.70;;;12.10;70.90;;;;;;601566;233;26952;-72
2022/07/17 02:47:52;;;;;;;2.78;1.40;;;12.10;71.10;;;;;;601532;238;26643;-72
2022/07/17 02:50:19;;;;;;;2.42;1.75;;;12.00;71.40;;;;;;601933;237;26846;-71
2022/07/17 02:52:48;;;;;;;3.28;1.83;;;12.00;72.40;;;;;;601883;238;26631;-72
2022/07/17 02:55:16;;;;;;;1.60;1.30;;;12.00;72.80;;;;;;601749;238;26640;-72
2022/07/17 02:57:43;;;;;;;3.42;1.50;;;12.00;73.10;;;;;;601481;239;26655;-72
2022/07/17 03:00:12;;;;;;;2.08;1.40;;;12.00;73.20;;;;;;601567;238;26618;-72
2022/07/17 03:02:39;;;;;;;3.40;1.62;;;11.90;73.00;;;;;;603110;237;26661;-72
2022/07/17 03:05:06;;;;;;;1.75;1.50;;;11.90;73.30;;;;;;602615;237;26849;-72
2022/07/17 03:07:34;;;;;;;4.30;1.60;;;11.90;73.80;;;;;;602446;237;26594;-72
2022/07/17 03:10:01;;;;;;;2.55;1.60;;;11.90;73.70;;;;;;602288;237;26831;-72
2022/07/17 03:12:28;;;;;;;2.37;1.67;;;11.90;74.00;;;;;;609437;233;26662;-73
2022/07/17 03:14:55;;;;;;;2.78;1.77;;;11.90;74.00;;;;;;612992;235;26865;-72
2022/07/17 03:17:22;;;;;;;1.92;1.50;;;11.90;73.70;;;;;;612992;235;26646;-72
2022/07/17 03:19:50;;;;;;;1.87;1.50;;;11.90;74.50;;;;;;611404;235;26873;-72
2022/07/17 03:22:17;;;;;;;2.70;1.65;;;11.90;75.00;;;;;;610186;235;26630;-72
2022/07/17 03:24:44;;;;;;;2.47;1.30;;;11.80;75.10;;;;;;610158;236;26846;-72
2022/07/17 03:27:11;;;;;;;1.98;1.65;;;11.80;75.50;;;;;;610163;230;26589;-72
2022/07/17 03:29:38;;;;;;;1.60;1.50;;;11.80;75.80;;;;;;609822;230;26657;-72
2022/07/17 03:32:06;;;;;;;2.33;1.75;;;11.80;76.50;;;;;;604832;238;26606;-72
2022/07/17 03:34:34;;;;;;;3.20;1.48;;;11.80;76.40;;;;;;604926;237;26563;-72
2022/07/17 03:37:03;;;;;;;1.98;1.70;;;11.80;76.60;;;;;;604833;237;26550;-72
2022/07/17 03:39:30;;;;;;;1.87;1.50;;;11.80;77.40;;;;;;604578;237;26582;-72
2022/07/17 03:41:57;;;;;;;1.95;1.58;;;11.80;77.20;;;;;;604650;237;26629;-72
2022/07/17 03:44:25;;;;;;;2.12;1.58;;;11.80;77.30;;;;;;604712;237;26581;-72
2022/07/17 03:46:52;;;;;;;2.65;1.50;;;11.80;77.80;;;;;;604599;237;26821;-72
2022/07/17 03:49:19;;;;;;;3.85;1.40;;;11.90;78.10;;;;;;604633;237;26583;-72
2022/07/17 03:51:46;;;;;;;1.87;1.42;;;11.80;78.60;;;;;;607707;235;27209;-72
2022/07/17 03:54:14;;;;;;;2.15;1.42;;;11.80;78.60;;;;;;609879;236;26590;-72
2022/07/17 03:56:42;;;;;;;1.65;1.35;;;11.80;79.20;;;;;;609862;236;26595;-72
2022/07/17 03:59:09;;;;;;;2.85;1.70;;;11.90;79.70;;;;;;609870;236;26587;-72
2022/07/17 04:01:38;;;;;;;2.95;1.40;;;11.90;79.80;;;;;;609761;235;26639;-72
2022/07/17 04:04:06;;;;;;;1.80;1.48;;;12.00;80.30;;;;;;609839;236;26569;-72
2022/07/17 04:06:33;;;;;;;1.52;1.15;;;12.00;79.60;;;;;;609890;236;26899;-66
2022/07/17 04:09:00;;;;;;;1.60;1.20;;;12.00;80.00;;;;;;609905;236;26598;-66
2022/07/17 04:11:28;;;;;;;3.20;1.35;;;12.00;80.00;;;;;;609822;235;26697;-66
2022/07/17 04:13:56;;;;;;;2.30;1.48;;;12.10;80.20;;;;;;611382;233;26690;-66
2022/07/17 04:16:24;;;;;;;2.17;1.60;;;12.10;80.10;;;;;;609844;235;26554;-66
2022/07/17 04:18:51;;;;;;;4.47;2.10;;;12.10;80.10;;;;;;604115;236;26617;-66
2022/07/17 04:21:18;;;;;;;2.53;1.27;;;12.20;80.20;;;;;;602329;237;26703;-66
2022/07/17 04:23:45;;;;;;;2.45;1.48;;;12.20;79.80;;;;;;602095;239;26933;-66
2022/07/17 04:26:13;;;;;;;2.75;1.70;;;12.30;79.70;;;;;;602078;239;26598;-66
2022/07/17 04:28:41;;;;;;;2.22;1.55;;;12.30;79.90;;;;;;602127;239;26730;-66
2022/07/17 04:31:09;;;;;;;3.40;1.50;;;12.40;79.60;;;;;;601876;237;26586;-66
2022/07/17 04:33:37;;;;;;;2.28;1.50;;;12.40;79.40;;;;;;601792;238;26590;-66
2022/07/17 04:36:05;;;;;;;2.08;1.50;;;12.50;79.30;;;;;;601817;239;26573;-66
2022/07/17 04:38:32;;;;;;;2.40;1.58;;;12.50;79.40;;;;;;601838;239;26815;-66
2022/07/17 04:40:59;;;;;;;2.85;1.45;;;12.50;79.80;;;;;;601754;239;26585;-66
2022/07/17 04:43:27;;;;;;;1.42;1.30;;;12.60;79.60;;;;;;601794;239;26848;-66
2022/07/17 04:45:54;;;;;;;3.70;1.60;;;12.60;79.30;;;;;;601784;237;26580;-66
2022/07/17 04:48:21;;;;;;;2.17;1.30;;;12.70;79.20;;;;;;601950;235;26919;-66
2022/07/17 04:50:48;;;;;;;2.17;1.12;;;12.70;79.20;;;;;;601503;239;26620;-66
2022/07/17 04:53:15;;;;;;;3.22;1.65;;;12.80;78.80;;;;;;601468;237;26933;-66
2022/07/17 04:55:42;;;;;;;4.93;1.50;;;12.90;78.70;;;;;;601506;239;26630;-66
2022/07/17 04:58:10;;;;;;;2.65;1.30;;;12.90;78.50;;;;;;601474;238;27250;-66
2022/07/17 05:00:38;;;;;;;2.45;1.40;;;12.90;78.50;;;;;;601499;238;26642;-66
2022/07/17 05:03:06;;;;;;;2.50;1.77;;;13.10;77.90;;;;;;601531;238;26663;-65
2022/07/17 05:05:34;;;;;;;1.77;1.48;;;13.20;77.30;;;;;;601517;237;26639;-66
2022/07/17 05:08:02;;;;;;;5.55;1.58;;;13.30;76.90;;;;;;601557;237;26610;-66
2022/07/17 05:10:30;;;;;;;3.53;1.48;;;13.30;77.00;;;;;;601574;238;26654;-66
2022/07/17 05:12:57;;;;;;;3.90;1.60;;;13.30;76.80;;;;;;601547;238;26664;-66
2022/07/17 05:15:25;;;;;;;1.40;1.10;;;13.40;76.90;;;;;;601574;237;26658;-66
2022/07/17 05:17:53;;;;;;;2.00;1.25;;;13.40;76.30;;;;;;609290;236;26632;-66
2022/07/17 05:20:20;;;;;;;2.37;1.40;;;13.40;76.00;;;;;;609963;235;26593;-65
2022/07/17 05:22:47;;;;;;;2.03;1.23;;;13.60;75.60;;;;;;609913;236;26954;-65
2022/07/17 05:25:16;;;;;;;3.50;1.37;;;13.70;74.80;;;;;;608517;233;26826;-64
2022/07/17 05:27:44;;;;;;;3.72;1.40;;;13.80;73.80;;;;;;604289;237;26590;-64
2022/07/17 05:30:12;;;;;;;2.62;1.65;;;13.80;73.30;;;;;;607996;234;27287;-65
2022/07/17 05:32:39;;;;;;;3.05;1.40;;;13.90;72.40;;;;;;605416;234;26662;-65
2022/07/17 05:35:07;;;;;;;1.92;1.42;;;14.00;71.90;;;;;;606089;235;26845;-65
2022/07/17 05:37:35;;;;;;;1.40;1.30;;;14.10;70.90;;;;;;604315;236;26855;-64
2022/07/17 05:40:02;;;;;;;3.80;1.40;;;14.10;70.90;;;;;;605721;236;26899;-65
2022/07/17 05:42:30;;;;;;;4.87;3.20;;;14.30;68.90;;;;;;605020;236;26616;-64
2022/07/17 05:44:58;;;;;;;8.73;7.00;;;14.60;68.10;;;;;;606054;235;26800;-64
2022/07/17 05:47:25;;;;;;;8.60;7.70;;;14.60;68.20;;;;;;604234;236;26787;-65
2022/07/17 05:49:52;;;;;;;11.48;6.75;;;14.80;67.00;;;;;;604341;233;26583;-64
2022/07/17 05:52:20;;;;;;;6.40;4.82;;;14.80;66.30;;;;;;606612;234;27198;-64
2022/07/17 05:54:47;;;;;;;6.90;5.35;;;14.70;66.30;;;;;;605564;236;26567;-64
2022/07/17 05:57:14;;;;;;;6.30;4.43;;;14.60;66.00;;;;;;608876;230;26611;-64
2022/07/17 05:59:42;;;;;;;6.82;4.12;;;14.70;65.80;;;;;;604984;236;26579;-64
2022/07/17 06:02:10;;;;;;;6.72;3.95;;;14.70;65.80;;;;;;606800;235;26626;-65
2022/07/17 06:04:37;;;;;;;4.65;4.07;;;14.90;64.40;;;;;;605878;235;26673;-64
2022/07/17 06:07:05;;;;;;;7.35;4.03;;;15.20;62.50;;;;;;603984;236;26648;-64
2022/07/17 06:09:33;;;;;;;6.70;3.95;;;15.30;61.90;;;;;;604793;236;26628;-65
2022/07/17 06:12:01;;;;;;;4.15;3.72;;;15.40;60.50;;;;;;603517;235;26652;-68
2022/07/17 06:14:29;;;;;;;5.22;3.28;;;15.30;60.50;;;;;;603168;237;26593;-65
2022/07/17 06:16:56;;;;;;;5.30;3.65;;;15.20;60.30;;;;;;605923;235;27316;-65
2022/07/17 06:19:23;;;;;;;6.22;3.30;;;15.40;59.50;;;;;;603483;235;26641;-65
2022/07/17 06:21:50;;;;;;;5.03;3.20;;;15.60;59.20;;;;;;604697;235;26904;-65
2022/07/17 06:24:18;;;;;;;3.33;3.03;;;15.80;58.80;;;;;;607419;236;26637;-65
2022/07/17 06:26:46;;;;;;;3.70;3.10;;;15.90;58.10;;;;;;604449;236;26824;-64
2022/07/17 06:29:13;;;;;;;3.53;2.90;;;15.80;58.00;;;;;;608423;236;26819;-65
2022/07/17 06:31:41;;;;;;;5.43;2.83;;;16.10;57.20;;;;;;602398;238;26690;-65
2022/07/17 06:34:09;;;;;;;4.68;2.92;;;16.20;56.40;;;;;;603216;238;26613;-64
2022/07/17 06:36:38;;;;;;;6.62;2.90;;;16.20;55.80;;;;;;605198;236;26645;-64
2022/07/17 06:39:06;;;;;;;5.05;2.97;;;16.30;56.30;;;;;;602691;237;26615;-64
2022/07/17 06:41:33;;;;;;;3.78;2.53;;;16.20;56.10;;;;;;609316;235;26614;-64
2022/07/17 06:44:01;;;;;;;5.53;2.78;;;16.40;55.70;;;;;;604289;236;26582;-65
2022/07/17 06:46:29;;;;;;;4.12;2.95;;;16.30;55.70;;;;;;602124;237;26809;-64
2022/07/17 06:48:56;;;;;;;2.75;2.20;;;16.30;55.80;;;;;;608804;235;26829;-65
2022/07/17 06:51:23;;;;;;;4.32;2.25;;;16.50;55.90;;;;;;610205;235;26661;-65
2022/07/17 06:53:50;;;;;;;5.78;3.10;;;16.50;55.50;;;;;;604987;234;26781;-65
2022/07/17 06:56:17;;;;;;;5.15;2.22;;;16.30;55.20;;;;;;603744;235;26584;-65
2022/07/17 06:58:45;;;;;;;3.87;2.40;;;16.50;55.40;;;;;;601803;235;26804;-65
2022/07/17 07:01:12;;;;;;;3.25;2.05;;;16.50;55.20;;;;;;607253;236;26626;-64
2022/07/17 07:03:39;;;;;;;3.22;2.75;;;16.60;55.50;;;;;;604200;237;27157;-64
2022/07/17 07:06:06;;;;;;;3.83;2.03;;;16.60;55.20;;;;;;606592;235;26615;-64
2022/07/17 07:08:33;;;;;;;4.85;2.42;;;16.70;55.30;;;;;;606163;235;26575;-64
2022/07/17 07:11:02;;;;;;;3.87;2.28;;;16.90;55.00;;;;;;607107;235;26583;-65
2022/07/17 07:13:29;;;;;;;5.43;2.00;;;16.80;54.90;;;;;;608552;236;26634;-65
2022/07/17 07:15:57;;;;;;;2.15;1.95;;;17.10;54.60;;;;;;602664;237;26626;-65
2022/07/17 07:18:25;;;;;;;2.67;2.12;;;16.90;54.40;;;;;;607366;236;26663;-65
2022/07/17 07:20:53;;;;;;;2.67;2.12;;;16.90;54.50;;;;;;602493;236;26640;-65
2022/07/17 07:23:20;;;;;;;2.72;2.00;;;17.00;54.60;;;;;;608431;236;26607;-66
2022/07/17 07:25:47;;;;;;;2.75;2.15;;;16.90;54.90;;;;;;604171;236;26617;-65
2022/07/17 07:28:15;;;;;;;4.53;1.83;;;17.10;54.10;;;;;;606843;235;26854;-66
2022/07/17 07:30:42;;;;;;;2.30;1.70;;;17.00;54.30;;;;;;604626;236;26578;-65
2022/07/17 07:33:09;;;;;;;5.07;1.80;;;17.30;54.30;;;;;;602006;236;27321;-66
2022/07/17 07:35:36;;;;;;;6.75;2.72;;;17.30;53.90;;;;;;608706;235;26596;-65
2022/07/17 07:38:03;;;;;;;19.40;4.47;;;17.40;53.90;;;;;;603307;232;26841;-65
2022/07/17 07:40:31;;;;;;;27.83;6.40;;;17.40;53.60;;;;;;607947;235;26631;-66
2022/07/17 07:42:59;;;;;;;17.48;4.57;;;17.70;53.40;;;;;;606280;235;26630;-64
2022/07/17 07:45:27;;;;;;;21.73;3.60;;;17.70;53.40;;;;;;603904;235;26652;-64
2022/07/17 07:47:55;;;;;;;12.13;3.42;;;17.50;53.50;;;;;;605098;235;26636;-66
2022/07/17 07:50:22;;;;;;;8.10;2.25;;;17.50;53.30;;;;;;604394;237;26646;-66
2022/07/17 07:52:49;;;;;;;5.12;1.80;;;17.60;53.50;;;;;;603567;234;26805;-65
2022/07/17 07:55:17;;;;;;;3.10;1.85;;;17.20;53.90;;;;;;602731;234;26598;-65
2022/07/17 07:57:45;;;;;;;5.50;1.90;;;17.30;54.10;;;;;;602784;237;26673;-65
2022/07/17 08:00:13;;;;;;;3.58;1.95;;;17.30;54.20;;;;;;603567;237;26863;-65
2022/07/17 08:02:40;;;;;;;6.37;1.98;;;17.20;54.20;;;;;;604150;237;26673;-65
2022/07/17 08:05:08;;;;;;;4.20;2.10;;;17.30;54.40;;;;;;602479;236;26821;-66
2022/07/17 08:07:35;;;;;;;3.28;1.65;;;17.30;54.10;;;;;;605385;235;26907;-66
2022/07/17 08:10:02;;;;;;;3.53;1.58;;;17.40;54.00;;;;;;603358;236;26574;-66
2022/07/17 08:12:29;;;;;;;3.67;1.75;;;17.10;54.30;;;;;;602046;236;26855;-65
2022/07/17 08:14:57;;;;;;;4.87;1.70;;;17.10;54.40;;;;;;602523;236;26583;-65
2022/07/17 08:17:24;;;;;;;5.18;1.73;;;17.40;54.30;;;;;;606427;235;26829;-66
2022/07/17 08:19:52;;;;;;;5.10;2.10;;;17.40;54.30;;;;;;601792;238;26542;-66
2022/07/17 08:22:20;;;;;;;4.10;1.90;;;17.20;54.50;;;;;;606111;235;26661;-66
2022/07/17 08:24:48;;;;;;;3.05;1.52;;;17.30;54.40;;;;;;602475;237;26617;-66
2022/07/17 08:27:16;;;;;;;2.22;1.60;;;17.40;54.40;;;;;;603443;235;26631;-66
2022/07/17 08:29:44;;;;;;;2.00;1.25;;;17.50;54.20;;;;;;610065;235;26579;-65
2022/07/17 08:32:11;;;;;;;2.35;1.25;;;17.50;54.20;;;;;;604652;236;26985;-66
2022/07/17 08:34:38;;;;;;;2.97;1.58;;;17.50;54.20;;;;;;602651;238;26589;-65
2022/07/17 08:37:05;;;;;;;1.85;1.40;;;17.40;54.00;;;;;;606694;236;26633;-65
2022/07/17 08:39:32;;;;;;;3.80;1.40;;;17.60;53.80;;;;;;602076;238;26625;-65
2022/07/17 08:42:00;;;;;;;1.62;1.35;;;17.80;53.30;;;;;;604984;236;26844;-65
2022/07/17 08:44:27;;;;;;;3.37;1.55;;;18.10;52.90;;;;;;604142;237;26589;-65
2022/07/17 08:46:54;;;;;;;1.60;1.50;;;18.10;52.30;;;;;;602323;235;26954;-65
2022/07/17 08:49:22;;;;;;;1.90;1.50;;;18.10;52.60;;;;;;604871;236;26570;-67
2022/07/17 08:51:49;;;;;;;1.85;1.20;;;18.60;51.90;;;;;;608211;235;26611;-65
2022/07/17 08:54:17;;;;;;;2.15;1.30;;;18.70;51.10;;;;;;611088;235;26620;-65
2022/07/17 08:56:45;;;;;;;3.33;1.40;;;18.70;51.20;;;;;;606401;235;26637;-65
2022/07/17 08:59:13;;;;;;;4.53;1.23;;;18.70;51.20;;;;;;602694;237;26651;-65
2022/07/17 09:01:41;;;;;;;1.92;1.40;;;18.60;51.40;;;;;;605326;235;26661;-65
2022/07/17 09:04:09;;;;;;;2.62;1.65;;;18.50;51.30;;;;;;608565;235;26815;-65
2022/07/17 09:06:36;;;;;;;3.35;1.37;;;18.80;51.30;;;;;;605304;235;26583;-65
2022/07/17 09:09:06;;;;;;;3.03;1.48;;;18.40;51.10;;;;;;602738;236;26888;-65
2022/07/17 09:11:44;;;;;;;3.03;1.40;;;18.40;51.10;;;;;;607045;235;26888;-65
2022/07/17 09:14:12;;;;;;;1.87;1.08;;;18.30;51.20;;;;;;603798;238;26652;-65
2022/07/17 09:16:51;;;;;;;2.33;1.15;;;18.60;51.20;;;;;;605011;235;26576;-65
2022/07/17 09:19:24;;;;;;;2.92;1.35;;;18.50;51.10;;;;;;604904;236;26593;-65
2022/07/17 09:21:51;;;;;;;2.05;1.25;;;19.10;50.70;;;;;;607101;234;26652;-65
2022/07/17 09:24:19;;;;;;;2.35;1.12;;;19.10;50.30;;;;;;603399;238;26591;-65
2022/07/17 09:26:47;;;;;;;2.05;1.35;;;19.10;50.40;;;;;;603011;235;26562;-65
2022/07/17 09:29:15;;;;;;;2.58;1.20;;;19.20;49.90;;;;;;608802;235;26610;-65
2022/07/17 09:31:42;;;;;;;3.22;1.37;;;19.20;49.90;;;;;;602393;238;26622;-68
2022/07/17 09:34:16;;;;;;;106.37;18.02;;;19.20;49.70;;;;;;601835;237;26594;-65
2022/07/17 09:36:44;;;;;;;107.70;22.50;;;19.30;49.40;;;;;;602237;236;26634;-65
2022/07/17 09:39:11;;;;;;;129.20;27.85;;;19.30;49.50;;;;;;608909;235;26641;-66
2022/07/17 09:41:39;;;;;;;148.23;31.50;;;19.50;49.50;;;;;;608123;234;26883;-66
2022/07/17 09:44:06;;;;;;;142.40;32.97;;;19.80;49.20;;;;;;602807;237;26622;-64
2022/07/17 09:46:33;;;;;;;151.77;34.47;;;19.70;49.40;;;;;;604396;232;26805;-69
2022/07/17 09:49:00;;;;;;;143.48;30.58;;;19.40;49.50;;;;;;602113;235;26628;-65
2022/07/17 09:51:32;;;;;;;119.40;27.27;;;19.80;49.60;;;;;;605232;236;26608;-66
2022/07/17 09:53:59;;;;;;;103.85;24.77;;;19.80;49.50;;;;;;607015;235;26981;-66
2022/07/17 09:56:26;;;;;;;107.25;23.92;;;19.80;49.20;;;;;;601538;236;26628;-66
2022/07/17 09:58:54;;;;;;;89.05;22.50;;;19.80;49.30;;;;;;603375;235;26893;-66
2022/07/17 10:01:21;;;;;;;88.53;21.98;;;20.00;49.10;;;;;;602509;235;26621;-66
2022/07/17 10:03:51;;;;;;;49.97;15.23;;;20.00;48.70;;;;;;602457;237;26878;-66
2022/07/17 10:06:16;;;;;;;74.32;18.95;;;19.90;48.90;;;;;;604352;238;26582;-67
2022/07/17 10:08:45;;;;;;;55.00;15.13;;;20.30;48.70;;;;;;608204;232;26642;-67
2022/07/17 10:11:15;;;;;;;43.42;11.00;;;20.40;48.40;;;;;;607194;235;26635;-67
2022/07/17 10:13:40;;;;;;;36.30;10.45;;;20.80;48.20;;;;;;604871;237;26541;-67
2022/07/17 10:16:08;;;;;;;22.33;5.75;;;20.70;47.70;;;;;;603821;235;26595;-67
2022/07/17 10:18:39;;;;;;;20.55;6.53;;;20.50;47.80;;;;;;603521;236;26578;-67
2022/07/17 10:21:13;;;;;;;23.42;6.80;;;20.50;47.80;;;;;;602436;234;26581;-67
2022/07/17 10:23:39;;;;;;;18.95;6.47;;;20.40;48.00;;;;;;610961;234;26822;-67
2022/07/17 10:26:06;;;;;;;24.40;8.10;;;20.50;47.80;;;;;;603477;235;26588;-67
2022/07/17 10:28:40;;;;;;;15.57;5.95;;;20.80;47.30;;;;;;603896;235;27326;-67
2022/07/17 10:31:08;;;;;;;4.70;2.60;;;20.80;47.30;;;;;;601940;236;26597;-67
2022/07/17 10:33:34;;;;;;;19.35;4.32;;;20.10;47.50;;;;;;609058;236;26888;-67
2022/07/17 10:36:02;;;;;;;12.40;4.00;;;19.80;48.10;;;;;;606844;236;26600;-67
2022/07/17 10:38:29;;;;;;;4.30;2.72;;;19.60;48.60;;;;;;605322;236;26585;-67
2022/07/17 10:41:00;;;;;;;6.35;2.40;;;19.50;48.70;;;;;;604064;237;26589;-67
2022/07/17 10:43:27;;;;;;;8.52;2.80;;;19.50;48.70;;;;;;604893;238;26805;-67
2022/07/17 10:45:55;;;;;;;8.52;2.25;;;19.60;48.50;;;;;;604995;237;26584;-67
2022/07/17 10:48:24;;;;;;;3.53;1.87;;;19.70;48.50;;;;;;603294;235;26549;-67
2022/07/17 10:50:52;;;;;;;3.95;1.55;;;19.80;48.10;;;;;;606503;236;26602;-67
2022/07/17 10:53:22;;;;;;;5.07;2.17;;;19.70;48.10;;;;;;603876;237;26611;-67
2022/07/17 10:55:48;;;;;;;6.85;2.53;;;19.60;48.10;;;;;;602413;235;26690;-67
2022/07/17 10:58:22;;;;;;;6.62;2.05;;;19.60;47.80;;;;;;607773;236;27257;-67
2022/07/17 11:00:55;;;;;;;4.10;2.00;;;19.60;48.10;;;;;;603842;235;26835;-67
2022/07/17 11:03:22;;;;;;;7.65;2.20;;;19.60;48.30;;;;;;601910;237;26914;-67
2022/07/17 11:05:51;;;;;;;3.40;1.92;;;20.20;47.70;;;;;;605581;236;26661;-67
2022/07/17 11:08:19;;;;;;;3.55;1.90;;;20.60;47.60;;;;;;601483;237;26650;-67
2022/07/17 11:10:47;;;;;;;4.53;1.90;;;20.60;47.60;;;;;;602986;235;26851;-67
2022/07/17 11:13:13;;;;;;;4.53;1.50;;;21.00;47.40;;;;;;608946;235;26653;-68
2022/07/17 11:15:40;;;;;;;5.95;2.00;;;21.10;46.60;;;;;;603839;237;26823;-68
2022/07/17 11:18:11;;;;;;;4.00;1.83;;;20.50;46.30;;;;;;606098;235;26593;-68
2022/07/17 11:20:48;;;;;;;4.72;1.58;;;20.40;46.90;;;;;;606763;236;26823;-68
2022/07/17 11:23:16;;;;;;;4.30;1.37;;;20.40;47.10;;;;;;604399;234;26656;-68
2022/07/17 11:25:52;;;;;;;3.58;1.77;;;20.40;46.80;;;;;;609523;234;26947;-68
2022/07/17 11:28:30;;;;;;;3.90;1.77;;;20.40;46.40;;;;;;603889;237;26579;-68
2022/07/17 11:30:57;;;;;;;3.60;1.58;;;20.40;46.60;;;;;;606672;233;26606;-67
2022/07/17 11:33:24;;;;;;;3.53;1.52;;;20.40;46.60;;;;;;605478;236;26584;-67
2022/07/17 11:35:51;;;;;;;5.80;1.55;;;20.30;46.50;;;;;;603085;238;26799;-67
2022/07/17 11:38:18;;;;;;;2.53;1.60;;;20.50;46.80;;;;;;603691;236;26645;-67
2022/07/17 11:40:46;;;;;;;2.22;1.60;;;20.60;46.50;;;;;;603362;238;26814;-67
2022/07/17 11:43:13;;;;;;;3.95;1.77;;;20.60;46.60;;;;;;607151;236;26646;-68
2022/07/17 11:45:40;;;;;;;9.45;1.67;;;20.70;46.70;;;;;;602771;238;27055;-67
2022/07/17 11:48:07;;;;;;;4.03;1.50;;;20.60;46.40;;;;;;603521;237;26625;-69
2022/07/17 11:50:34;;;;;;;5.47;1.85;;;20.60;46.50;;;;;;603744;237;26823;-68
2022/07/17 11:53:02;;;;;;;5.68;1.40;;;20.50;47.40;;;;;;602341;237;26610;-68
2022/07/17 11:55:36;;;;;;;4.15;1.55;;;20.30;47.10;;;;;;602546;237;26940;-68
2022/07/17 11:58:02;;;;;;;4.22;1.77;;;20.30;47.20;;;;;;607895;235;26626;-67
2022/07/17 12:00:29;;;;;;;6.65;2.37;;;20.30;47.20;;;;;;604619;234;26841;-69
2022/07/17 12:03:00;;;;;;;5.28;1.52;;;20.40;47.50;;;;;;608525;236;26638;-69
2022/07/17 12:05:27;;;;;;;5.43;1.52;;;20.60;47.20;;;;;;601607;238;26858;-69
2022/07/17 12:07:54;;;;;;;3.97;1.75;;;20.50;46.50;;;;;;602537;238;26619;-68
2022/07/17 12:10:22;;;;;;;5.37;1.30;;;20.60;47.00;;;;;;602957;237;26826;-68
2022/07/17 12:12:56;;;;;;;2.67;1.55;;;20.60;46.40;;;;;;602273;235;26664;-68
2022/07/17 12:15:39;;;;;;;5.37;1.30;;;20.80;45.70;;;;;;602174;236;26666;-67
2022/07/17 12:18:06;;;;;;;3.53;1.77;;;20.80;45.60;;;;;;606523;236;27318;-67
2022/07/17 12:20:40;;;;;;;3.58;1.60;;;20.70;45.00;;;;;;604753;236;26891;-68
2022/07/17 12:23:07;;;;;;;3.92;1.50;;;20.80;45.00;;;;;;608368;236;26597;-68
2022/07/17 12:25:34;;;;;;;2.53;1.15;;;21.30;45.30;;;;;;602091;238;26632;-68
2022/07/17 12:28:02;;;;;;;2.90;1.35;;;21.80;44.60;;;;;;604370;236;26590;-68
2022/07/17 12:30:32;;;;;;;2.28;1.52;;;22.00;43.40;;;;;;607150;236;26633;-68
2022/07/17 12:32:57;;;;;;;2.00;1.40;;;22.00;43.40;;;;;;606335;235;26656;-68
2022/07/17 12:35:24;;;;;;;2.45;1.58;;;22.00;43.90;;;;;;603848;233;26625;-68
2022/07/17 12:37:52;;;;;;;2.83;1.55;;;22.40;43.70;;;;;;607425;234;26902;-66
2022/07/17 12:40:20;;;;;;;4.57;1.75;;;22.30;43.60;;;;;;602210;237;26995;-67
2022/07/17 12:42:47;;;;;;;4.72;1.40;;;22.60;43.70;;;;;;603017;235;26897;-68
2022/07/17 12:45:14;;;;;;;10.20;1.55;;;22.80;42.50;;;;;;603554;235;26582;-67
2022/07/17 12:47:41;;;;;;;3.03;1.58;;;23.10;41.90;;;;;;603398;232;26882;-67